sensor_id;sensor_type;location;lat;lon;timestamp;P1;durP1;ratioP1;P2;durP2;ratioP2
60239;SDS011;46102;39.012;-7.064;2023-08-07T00:00:19;1.50;;;1.40;;
60239;SDS011;46102;39.012;-7.064;2023-08-07T00:02:20;2.47;;;1.08;;
60239;SDS011;46102;39.012;-7.064;2023-08-07T00:04:21;12.38;;;1.73;;
60239;SDS011;46102;39.012;-7.064;2023-08-07T00:06:21;5.07;;;1.10;;
60239;SDS011;46102;39.012;-7.064;2023-08-07T00:08:22;7.85;;;1.08;;
60239;SDS011;46102;39.012;-7.064;2023-08-07T00:10:23;1.10;;;0.95;;
60239;SDS011;46102;39.012;-7.064;2023-08-07T00:12:24;2.53;;;1.35;;
60239;SDS011;46102;39.012;-7.064;2023-08-07T00:14:25;3.70;;;1.10;;
60239;SDS011;46102;39.012;-7.064;2023-08-07T00:16:26;3.53;;;1.42;;
60239;SDS011;46102;39.012;-7.064;2023-08-07T00:18:27;2.08;;;1.10;;
60239;SDS011;46102;39.012;-7.064;2023-08-07T00:20:28;4.57;;;1.13;;
60239;SDS011;46102;39.012;-7.064;2023-08-07T00:22:29;2.50;;;1.38;;
60239;SDS011;46102;39.012;-7.064;2023-08-07T00:24:30;4.22;;;1.10;;
60239;SDS011;46102;39.012;-7.064;2023-08-07T00:26:31;3.15;;;0.90;;
60239;SDS011;46102;39.012;-7.064;2023-08-07T00:28:32;1.75;;;1.00;;
60239;SDS011;46102;39.012;-7.064;2023-08-07T00:30:33;3.30;;;1.30;;
60239;SDS011;46102;39.012;-7.064;2023-08-07T00:32:34;3.30;;;1.05;;
60239;SDS011;46102;39.012;-7.064;2023-08-07T00:34:35;4.90;;;1.10;;
60239;SDS011;46102;39.012;-7.064;2023-08-07T00:36:36;6.07;;;1.20;;
60239;SDS011;46102;39.012;-7.064;2023-08-07T00:38:36;6.63;;;1.10;;
60239;SDS011;46102;39.012;-7.064;2023-08-07T00:40:37;8.50;;;1.40;;
60239;SDS011;46102;39.012;-7.064;2023-08-07T00:42:38;4.68;;;1.30;;
60239;SDS011;46102;39.012;-7.064;2023-08-07T00:44:39;4.53;;;0.90;;
60239;SDS011;46102;39.012;-7.064;2023-08-07T00:46:40;3.22;;;1.08;;
60239;SDS011;46102;39.012;-7.064;2023-08-07T00:48:42;3.53;;;1.05;;
60239;SDS011;46102;39.012;-7.064;2023-08-07T00:50:43;2.58;;;1.00;;
60239;SDS011;46102;39.012;-7.064;2023-08-07T00:52:46;5.00;;;1.30;;
60239;SDS011;46102;39.012;-7.064;2023-08-07T00:54:47;3.45;;;1.30;;
60239;SDS011;46102;39.012;-7.064;2023-08-07T00:56:49;1.70;;;1.10;;
60239;SDS011;46102;39.012;-7.064;2023-08-07T00:58:50;2.13;;;1.00;;
60239;SDS011;46102;39.012;-7.064;2023-08-07T01:00:51;4.53;;;1.30;;
60239;SDS011;46102;39.012;-7.064;2023-08-07T01:02:51;2.78;;;0.88;;
60239;SDS011;46102;39.012;-7.064;2023-08-07T01:04:54;5.47;;;1.50;;
60239;SDS011;46102;39.012;-7.064;2023-08-07T01:06:55;2.90;;;0.82;;
60239;SDS011;46102;39.012;-7.064;2023-08-07T01:08:56;6.72;;;1.23;;
60239;SDS011;46102;39.012;-7.064;2023-08-07T01:13:29;1.27;;;1.05;;
60239;SDS011;46102;39.012;-7.064;2023-08-07T01:15:37;4.22;;;1.05;;
60239;SDS011;46102;39.012;-7.064;2023-08-07T01:17:39;3.60;;;0.98;;
60239;SDS011;46102;39.012;-7.064;2023-08-07T01:19:42;4.85;;;1.02;;
60239;SDS011;46102;39.012;-7.064;2023-08-07T01:21:44;1.20;;;1.08;;
60239;SDS011;46102;39.012;-7.064;2023-08-07T01:23:48;1.80;;;1.15;;
60239;SDS011;46102;39.012;-7.064;2023-08-07T01:25:49;2.47;;;1.08;;
60239;SDS011;46102;39.012;-7.064;2023-08-07T01:28:00;1.45;;;0.90;;
60239;SDS011;46102;39.012;-7.064;2023-08-07T01:32:39;2.42;;;1.17;;
60239;SDS011;46102;39.012;-7.064;2023-08-07T01:34:49;2.45;;;0.82;;
60239;SDS011;46102;39.012;-7.064;2023-08-07T01:36:52;2.75;;;1.20;;
60239;SDS011;46102;39.012;-7.064;2023-08-07T01:38:55;1.50;;;1.00;;
60239;SDS011;46102;39.012;-7.064;2023-08-07T01:41:00;3.35;;;1.10;;
60239;SDS011;46102;39.012;-7.064;2023-08-07T01:43:02;2.83;;;1.20;;
60239;SDS011;46102;39.012;-7.064;2023-08-07T01:45:04;1.52;;;1.00;;
60239;SDS011;46102;39.012;-7.064;2023-08-07T01:47:05;3.00;;;1.00;;
60239;SDS011;46102;39.012;-7.064;2023-08-07T01:49:06;1.85;;;1.33;;
60239;SDS011;46102;39.012;-7.064;2023-08-07T01:51:07;2.15;;;0.88;;
60239;SDS011;46102;39.012;-7.064;2023-08-07T01:53:08;1.95;;;1.15;;
60239;SDS011;46102;39.012;-7.064;2023-08-07T01:55:08;1.63;;;0.80;;
60239;SDS011;46102;39.012;-7.064;2023-08-07T01:57:09;5.80;;;1.25;;
60239;SDS011;46102;39.012;-7.064;2023-08-07T01:59:10;2.13;;;1.45;;
60239;SDS011;46102;39.012;-7.064;2023-08-07T02:01:11;3.53;;;1.05;;
60239;SDS011;46102;39.012;-7.064;2023-08-07T02:03:13;2.10;;;1.00;;
60239;SDS011;46102;39.012;-7.064;2023-08-07T02:05:14;2.80;;;1.10;;
60239;SDS011;46102;39.012;-7.064;2023-08-07T02:07:15;2.38;;;0.80;;
60239;SDS011;46102;39.012;-7.064;2023-08-07T02:09:16;3.03;;;1.02;;
60239;SDS011;46102;39.012;-7.064;2023-08-07T02:11:16;1.00;;;0.90;;
60239;SDS011;46102;39.012;-7.064;2023-08-07T02:13:17;1.30;;;1.00;;
60239;SDS011;46102;39.012;-7.064;2023-08-07T02:15:18;5.88;;;0.80;;
60239;SDS011;46102;39.012;-7.064;2023-08-07T02:17:24;3.65;;;1.25;;
60239;SDS011;46102;39.012;-7.064;2023-08-07T02:19:25;2.53;;;1.00;;
60239;SDS011;46102;39.012;-7.064;2023-08-07T02:21:26;1.55;;;1.10;;
60239;SDS011;46102;39.012;-7.064;2023-08-07T02:23:26;5.85;;;0.85;;
60239;SDS011;46102;39.012;-7.064;2023-08-07T02:25:29;6.30;;;1.40;;
60239;SDS011;46102;39.012;-7.064;2023-08-07T02:27:30;1.42;;;1.02;;
60239;SDS011;46102;39.012;-7.064;2023-08-07T02:29:31;4.57;;;0.98;;
60239;SDS011;46102;39.012;-7.064;2023-08-07T02:31:34;2.70;;;0.95;;
60239;SDS011;46102;39.012;-7.064;2023-08-07T02:33:35;3.60;;;1.10;;
60239;SDS011;46102;39.012;-7.064;2023-08-07T02:35:36;2.97;;;0.77;;
60239;SDS011;46102;39.012;-7.064;2023-08-07T02:37:36;0.88;;;0.80;;
60239;SDS011;46102;39.012;-7.064;2023-08-07T02:39:37;1.55;;;1.08;;
60239;SDS011;46102;39.012;-7.064;2023-08-07T02:41:38;2.33;;;1.20;;
60239;SDS011;46102;39.012;-7.064;2023-08-07T02:43:39;1.20;;;0.90;;
60239;SDS011;46102;39.012;-7.064;2023-08-07T02:45:39;1.75;;;1.20;;
60239;SDS011;46102;39.012;-7.064;2023-08-07T02:47:40;2.20;;;0.93;;
60239;SDS011;46102;39.012;-7.064;2023-08-07T02:49:41;2.30;;;1.15;;
60239;SDS011;46102;39.012;-7.064;2023-08-07T02:51:42;2.38;;;0.95;;
60239;SDS011;46102;39.012;-7.064;2023-08-07T02:53:42;2.63;;;1.02;;
60239;SDS011;46102;39.012;-7.064;2023-08-07T02:55:43;1.75;;;0.88;;
60239;SDS011;46102;39.012;-7.064;2023-08-07T02:57:44;1.27;;;0.80;;
60239;SDS011;46102;39.012;-7.064;2023-08-07T02:59:45;2.53;;;0.80;;
60239;SDS011;46102;39.012;-7.064;2023-08-07T03:01:46;2.08;;;1.02;;
60239;SDS011;46102;39.012;-7.064;2023-08-07T03:03:47;8.40;;;1.15;;
60239;SDS011;46102;39.012;-7.064;2023-08-07T03:05:51;1.10;;;0.98;;
60239;SDS011;46102;39.012;-7.064;2023-08-07T03:07:52;1.65;;;1.15;;
60239;SDS011;46102;39.012;-7.064;2023-08-07T03:09:52;3.13;;;1.13;;
60239;SDS011;46102;39.012;-7.064;2023-08-07T03:11:53;1.10;;;1.10;;
60239;SDS011;46102;39.012;-7.064;2023-08-07T03:13:54;7.45;;;0.80;;
60239;SDS011;46102;39.012;-7.064;2023-08-07T03:15:59;2.10;;;1.25;;
60239;SDS011;46102;39.012;-7.064;2023-08-07T03:18:00;1.15;;;0.80;;
60239;SDS011;46102;39.012;-7.064;2023-08-07T03:20:01;1.92;;;1.20;;
60239;SDS011;46102;39.012;-7.064;2023-08-07T03:22:04;3.05;;;1.10;;
60239;SDS011;46102;39.012;-7.064;2023-08-07T03:24:05;1.60;;;0.80;;
60239;SDS011;46102;39.012;-7.064;2023-08-07T03:26:07;2.78;;;1.17;;
60239;SDS011;46102;39.012;-7.064;2023-08-07T03:28:12;3.65;;;0.90;;
60239;SDS011;46102;39.012;-7.064;2023-08-07T03:30:13;1.02;;;0.93;;
60239;SDS011;46102;39.012;-7.064;2023-08-07T03:32:15;1.00;;;0.80;;
60239;SDS011;46102;39.012;-7.064;2023-08-07T03:34:16;0.90;;;0.90;;
60239;SDS011;46102;39.012;-7.064;2023-08-07T03:36:17;2.78;;;1.30;;
60239;SDS011;46102;39.012;-7.064;2023-08-07T03:38:18;1.70;;;0.73;;
60239;SDS011;46102;39.012;-7.064;2023-08-07T03:40:19;3.90;;;0.95;;
60239;SDS011;46102;39.012;-7.064;2023-08-07T03:42:21;2.75;;;1.15;;
60239;SDS011;46102;39.012;-7.064;2023-08-07T03:44:21;1.05;;;1.05;;
60239;SDS011;46102;39.012;-7.064;2023-08-07T03:46:22;0.93;;;0.90;;
60239;SDS011;46102;39.012;-7.064;2023-08-07T03:48:23;2.05;;;0.95;;
60239;SDS011;46102;39.012;-7.064;2023-08-07T03:50:24;1.60;;;0.75;;
60239;SDS011;46102;39.012;-7.064;2023-08-07T03:52:26;3.28;;;1.17;;
60239;SDS011;46102;39.012;-7.064;2023-08-07T03:54:27;5.20;;;1.13;;
60239;SDS011;46102;39.012;-7.064;2023-08-07T03:56:28;1.70;;;1.05;;
60239;SDS011;46102;39.012;-7.064;2023-08-07T03:58:32;3.03;;;0.90;;
60239;SDS011;46102;39.012;-7.064;2023-08-07T04:00:34;1.13;;;1.00;;
60239;SDS011;46102;39.012;-7.064;2023-08-07T04:02:34;2.67;;;1.67;;
60239;SDS011;46102;39.012;-7.064;2023-08-07T04:04:35;1.95;;;1.60;;
60239;SDS011;46102;39.012;-7.064;2023-08-07T04:06:36;0.90;;;0.90;;
60239;SDS011;46102;39.012;-7.064;2023-08-07T04:08:37;1.27;;;1.10;;
60239;SDS011;46102;39.012;-7.064;2023-08-07T04:10:37;5.93;;;0.98;;
60239;SDS011;46102;39.012;-7.064;2023-08-07T04:12:38;2.05;;;0.85;;
60239;SDS011;46102;39.012;-7.064;2023-08-07T04:14:39;1.10;;;1.00;;
60239;SDS011;46102;39.012;-7.064;2023-08-07T04:16:40;1.90;;;1.08;;
60239;SDS011;46102;39.012;-7.064;2023-08-07T04:18:41;3.10;;;1.00;;
60239;SDS011;46102;39.012;-7.064;2023-08-07T04:20:41;1.73;;;0.90;;
60239;SDS011;46102;39.012;-7.064;2023-08-07T04:22:42;2.65;;;0.90;;
60239;SDS011;46102;39.012;-7.064;2023-08-07T04:24:46;2.80;;;0.98;;
60239;SDS011;46102;39.012;-7.064;2023-08-07T04:26:46;1.70;;;0.98;;
60239;SDS011;46102;39.012;-7.064;2023-08-07T04:28:48;1.10;;;1.00;;
60239;SDS011;46102;39.012;-7.064;2023-08-07T04:30:49;7.55;;;1.30;;
60239;SDS011;46102;39.012;-7.064;2023-08-07T04:32:51;3.17;;;1.10;;
60239;SDS011;46102;39.012;-7.064;2023-08-07T04:34:52;1.20;;;1.02;;
60239;SDS011;46102;39.012;-7.064;2023-08-07T04:36:52;2.88;;;0.63;;
60239;SDS011;46102;39.012;-7.064;2023-08-07T04:38:53;11.10;;;1.30;;
60239;SDS011;46102;39.012;-7.064;2023-08-07T04:40:55;1.17;;;1.08;;
60239;SDS011;46102;39.012;-7.064;2023-08-07T04:42:56;1.08;;;1.00;;
60239;SDS011;46102;39.012;-7.064;2023-08-07T04:44:57;2.00;;;0.82;;
60239;SDS011;46102;39.012;-7.064;2023-08-07T04:46:58;1.48;;;0.93;;
60239;SDS011;46102;39.012;-7.064;2023-08-07T04:48:58;1.20;;;1.00;;
60239;SDS011;46102;39.012;-7.064;2023-08-07T04:51:01;1.20;;;0.80;;
60239;SDS011;46102;39.012;-7.064;2023-08-07T04:53:02;2.42;;;1.13;;
60239;SDS011;46102;39.012;-7.064;2023-08-07T04:55:04;1.30;;;1.02;;
60239;SDS011;46102;39.012;-7.064;2023-08-07T04:57:05;2.60;;;1.27;;
60239;SDS011;46102;39.012;-7.064;2023-08-07T04:59:06;5.82;;;0.90;;
60239;SDS011;46102;39.012;-7.064;2023-08-07T05:01:07;11.50;;;0.90;;
60239;SDS011;46102;39.012;-7.064;2023-08-07T05:03:09;2.85;;;1.17;;
60239;SDS011;46102;39.012;-7.064;2023-08-07T05:05:10;1.23;;;0.88;;
60239;SDS011;46102;39.012;-7.064;2023-08-07T05:07:10;3.25;;;0.80;;
60239;SDS011;46102;39.012;-7.064;2023-08-07T05:09:11;1.42;;;0.90;;
60239;SDS011;46102;39.012;-7.064;2023-08-07T05:11:12;8.18;;;1.08;;
60239;SDS011;46102;39.012;-7.064;2023-08-07T05:13:13;1.10;;;1.10;;
60239;SDS011;46102;39.012;-7.064;2023-08-07T05:15:14;0.93;;;0.80;;
60239;SDS011;46102;39.012;-7.064;2023-08-07T05:17:15;1.40;;;0.70;;
60239;SDS011;46102;39.012;-7.064;2023-08-07T05:19:15;4.88;;;0.90;;
60239;SDS011;46102;39.012;-7.064;2023-08-07T05:21:16;4.32;;;0.80;;
60239;SDS011;46102;39.012;-7.064;2023-08-07T05:23:17;5.90;;;1.17;;
60239;SDS011;46102;39.012;-7.064;2023-08-07T05:25:18;0.85;;;0.85;;
60239;SDS011;46102;39.012;-7.064;2023-08-07T05:27:19;1.02;;;0.90;;
60239;SDS011;46102;39.012;-7.064;2023-08-07T05:29:19;3.97;;;1.27;;
60239;SDS011;46102;39.012;-7.064;2023-08-07T05:31:20;0.93;;;0.65;;
60239;SDS011;46102;39.012;-7.064;2023-08-07T05:33:21;2.05;;;0.70;;
60239;SDS011;46102;39.012;-7.064;2023-08-07T05:35:22;4.80;;;0.70;;
60239;SDS011;46102;39.012;-7.064;2023-08-07T05:37:22;2.97;;;1.30;;
60239;SDS011;46102;39.012;-7.064;2023-08-07T05:39:23;2.45;;;1.20;;
60239;SDS011;46102;39.012;-7.064;2023-08-07T05:41:24;5.35;;;1.10;;
60239;SDS011;46102;39.012;-7.064;2023-08-07T05:43:25;2.67;;;1.20;;
60239;SDS011;46102;39.012;-7.064;2023-08-07T05:45:25;3.40;;;1.20;;
60239;SDS011;46102;39.012;-7.064;2023-08-07T05:47:26;2.50;;;1.23;;
60239;SDS011;46102;39.012;-7.064;2023-08-07T05:49:27;4.50;;;1.05;;
60239;SDS011;46102;39.012;-7.064;2023-08-07T05:51:28;1.65;;;1.17;;
60239;SDS011;46102;39.012;-7.064;2023-08-07T05:53:28;5.85;;;2.38;;
60239;SDS011;46102;39.012;-7.064;2023-08-07T05:55:29;6.43;;;4.13;;
60239;SDS011;46102;39.012;-7.064;2023-08-07T05:57:30;4.45;;;2.30;;
60239;SDS011;46102;39.012;-7.064;2023-08-07T05:59:31;3.00;;;1.40;;
60239;SDS011;46102;39.012;-7.064;2023-08-07T06:01:32;2.25;;;1.05;;
60239;SDS011;46102;39.012;-7.064;2023-08-07T06:03:32;1.45;;;1.27;;
60239;SDS011;46102;39.012;-7.064;2023-08-07T06:05:34;2.67;;;0.95;;
60239;SDS011;46102;39.012;-7.064;2023-08-07T06:07:35;3.20;;;1.88;;
60239;SDS011;46102;39.012;-7.064;2023-08-07T06:09:36;10.18;;;2.80;;
60239;SDS011;46102;39.012;-7.064;2023-08-07T06:11:36;5.60;;;2.75;;
60239;SDS011;46102;39.012;-7.064;2023-08-07T06:13:37;7.47;;;1.25;;
60239;SDS011;46102;39.012;-7.064;2023-08-07T06:15:40;4.88;;;1.02;;
60239;SDS011;46102;39.012;-7.064;2023-08-07T06:17:41;1.58;;;1.05;;
60239;SDS011;46102;39.012;-7.064;2023-08-07T06:19:42;5.13;;;1.30;;
60239;SDS011;46102;39.012;-7.064;2023-08-07T06:21:42;12.15;;;1.40;;
60239;SDS011;46102;39.012;-7.064;2023-08-07T06:23:43;9.23;;;1.10;;
60239;SDS011;46102;39.012;-7.064;2023-08-07T06:25:44;2.67;;;1.20;;
60239;SDS011;46102;39.012;-7.064;2023-08-07T06:27:45;2.20;;;1.33;;
60239;SDS011;46102;39.012;-7.064;2023-08-07T06:29:45;14.05;;;1.13;;
60239;SDS011;46102;39.012;-7.064;2023-08-07T06:31:46;3.28;;;1.30;;
60239;SDS011;46102;39.012;-7.064;2023-08-07T06:33:47;1.20;;;1.10;;
60239;SDS011;46102;39.012;-7.064;2023-08-07T06:35:51;4.45;;;1.70;;
60239;SDS011;46102;39.012;-7.064;2023-08-07T06:37:52;2.42;;;0.98;;
60239;SDS011;46102;39.012;-7.064;2023-08-07T06:39:53;4.15;;;1.00;;
60239;SDS011;46102;39.012;-7.064;2023-08-07T06:41:54;5.68;;;1.35;;
60239;SDS011;46102;39.012;-7.064;2023-08-07T06:44:01;4.07;;;1.50;;
60239;SDS011;46102;39.012;-7.064;2023-08-07T06:46:02;7.82;;;1.40;;
60239;SDS011;46102;39.012;-7.064;2023-08-07T06:48:02;3.80;;;1.77;;
60239;SDS011;46102;39.012;-7.064;2023-08-07T06:50:03;2.03;;;1.20;;
60239;SDS011;46102;39.012;-7.064;2023-08-07T06:52:05;1.70;;;1.20;;
60239;SDS011;46102;39.012;-7.064;2023-08-07T06:54:06;1.33;;;1.08;;
60239;SDS011;46102;39.012;-7.064;2023-08-07T06:56:07;3.60;;;1.23;;
60239;SDS011;46102;39.012;-7.064;2023-08-07T06:58:08;7.35;;;1.45;;
60239;SDS011;46102;39.012;-7.064;2023-08-07T07:00:09;11.27;;;2.13;;
60239;SDS011;46102;39.012;-7.064;2023-08-07T07:02:11;2.95;;;1.42;;
60239;SDS011;46102;39.012;-7.064;2023-08-07T07:04:12;4.60;;;1.88;;
60239;SDS011;46102;39.012;-7.064;2023-08-07T07:06:12;3.92;;;1.17;;
60239;SDS011;46102;39.012;-7.064;2023-08-07T07:08:13;6.97;;;1.38;;
60239;SDS011;46102;39.012;-7.064;2023-08-07T07:10:14;3.13;;;1.98;;
60239;SDS011;46102;39.012;-7.064;2023-08-07T07:12:15;6.40;;;2.00;;
60239;SDS011;46102;39.012;-7.064;2023-08-07T07:14:15;3.33;;;1.40;;
60239;SDS011;46102;39.012;-7.064;2023-08-07T07:16:18;6.25;;;1.20;;
60239;SDS011;46102;39.012;-7.064;2023-08-07T07:18:21;3.50;;;1.10;;
60239;SDS011;46102;39.012;-7.064;2023-08-07T07:20:22;4.00;;;0.93;;
60239;SDS011;46102;39.012;-7.064;2023-08-07T07:22:22;1.85;;;1.08;;
60239;SDS011;46102;39.012;-7.064;2023-08-07T07:24:23;3.38;;;1.55;;
60239;SDS011;46102;39.012;-7.064;2023-08-07T07:26:24;4.05;;;1.00;;
60239;SDS011;46102;39.012;-7.064;2023-08-07T07:28:25;1.98;;;1.65;;
60239;SDS011;46102;39.012;-7.064;2023-08-07T07:30:25;3.78;;;0.93;;
60239;SDS011;46102;39.012;-7.064;2023-08-07T07:32:26;4.30;;;0.90;;
60239;SDS011;46102;39.012;-7.064;2023-08-07T07:34:27;1.85;;;1.10;;
60239;SDS011;46102;39.012;-7.064;2023-08-07T07:36:28;2.17;;;0.93;;
60239;SDS011;46102;39.012;-7.064;2023-08-07T07:38:29;4.60;;;1.10;;
60239;SDS011;46102;39.012;-7.064;2023-08-07T07:40:30;1.48;;;1.17;;
60239;SDS011;46102;39.012;-7.064;2023-08-07T07:42:30;5.57;;;1.48;;
60239;SDS011;46102;39.012;-7.064;2023-08-07T07:44:31;4.15;;;1.08;;
60239;SDS011;46102;39.012;-7.064;2023-08-07T07:46:32;2.03;;;1.30;;
60239;SDS011;46102;39.012;-7.064;2023-08-07T07:48:33;3.97;;;1.40;;
60239;SDS011;46102;39.012;-7.064;2023-08-07T07:50:34;6.25;;;1.42;;
60239;SDS011;46102;39.012;-7.064;2023-08-07T07:52:35;5.85;;;1.42;;
60239;SDS011;46102;39.012;-7.064;2023-08-07T07:54:36;7.95;;;1.38;;
60239;SDS011;46102;39.012;-7.064;2023-08-07T07:56:37;4.63;;;1.85;;
60239;SDS011;46102;39.012;-7.064;2023-08-07T07:58:37;11.80;;;1.23;;
60239;SDS011;46102;39.012;-7.064;2023-08-07T08:00:38;5.65;;;1.65;;
60239;SDS011;46102;39.012;-7.064;2023-08-07T08:02:39;4.20;;;1.33;;
60239;SDS011;46102;39.012;-7.064;2023-08-07T08:04:43;5.53;;;1.13;;
60239;SDS011;46102;39.012;-7.064;2023-08-07T08:06:44;5.97;;;1.45;;
60239;SDS011;46102;39.012;-7.064;2023-08-07T08:08:45;6.10;;;1.52;;
60239;SDS011;46102;39.012;-7.064;2023-08-07T08:10:45;4.10;;;1.00;;
60239;SDS011;46102;39.012;-7.064;2023-08-07T08:12:47;4.93;;;1.50;;
60239;SDS011;46102;39.012;-7.064;2023-08-07T08:14:48;7.65;;;1.30;;
60239;SDS011;46102;39.012;-7.064;2023-08-07T08:16:49;5.97;;;1.50;;
60239;SDS011;46102;39.012;-7.064;2023-08-07T08:18:50;6.47;;;1.23;;
60239;SDS011;46102;39.012;-7.064;2023-08-07T08:20:51;8.23;;;1.55;;
60239;SDS011;46102;39.012;-7.064;2023-08-07T08:22:51;5.80;;;1.15;;
60239;SDS011;46102;39.012;-7.064;2023-08-07T08:24:52;6.78;;;1.40;;
60239;SDS011;46102;39.012;-7.064;2023-08-07T08:26:53;9.23;;;1.33;;
60239;SDS011;46102;39.012;-7.064;2023-08-07T08:28:54;4.90;;;1.20;;
60239;SDS011;46102;39.012;-7.064;2023-08-07T08:30:55;6.93;;;1.40;;
60239;SDS011;46102;39.012;-7.064;2023-08-07T08:32:56;5.07;;;1.63;;
60239;SDS011;46102;39.012;-7.064;2023-08-07T08:34:57;2.80;;;1.40;;
60239;SDS011;46102;39.012;-7.064;2023-08-07T08:36:58;7.85;;;1.50;;
60239;SDS011;46102;39.012;-7.064;2023-08-07T08:38:58;3.03;;;1.85;;
60239;SDS011;46102;39.012;-7.064;2023-08-07T08:41:00;4.32;;;1.13;;
60239;SDS011;46102;39.012;-7.064;2023-08-07T08:43:04;12.10;;;1.70;;
60239;SDS011;46102;39.012;-7.064;2023-08-07T08:45:06;7.30;;;1.50;;
60239;SDS011;46102;39.012;-7.064;2023-08-07T08:47:10;5.40;;;1.67;;
60239;SDS011;46102;39.012;-7.064;2023-08-07T08:49:12;8.02;;;1.20;;
60239;SDS011;46102;39.012;-7.064;2023-08-07T08:51:19;3.20;;;1.40;;
60239;SDS011;46102;39.012;-7.064;2023-08-07T08:53:22;3.25;;;1.38;;
60239;SDS011;46102;39.012;-7.064;2023-08-07T08:55:24;6.30;;;1.30;;
60239;SDS011;46102;39.012;-7.064;2023-08-07T08:57:27;3.65;;;1.17;;
60239;SDS011;46102;39.012;-7.064;2023-08-07T08:59:29;6.55;;;1.70;;
60239;SDS011;46102;39.012;-7.064;2023-08-07T09:01:30;7.07;;;1.65;;
60239;SDS011;46102;39.012;-7.064;2023-08-07T09:03:32;2.63;;;1.30;;
60239;SDS011;46102;39.012;-7.064;2023-08-07T09:05:33;4.30;;;1.20;;
60239;SDS011;46102;39.012;-7.064;2023-08-07T09:07:37;1.42;;;1.15;;
60239;SDS011;46102;39.012;-7.064;2023-08-07T09:09:38;4.22;;;1.45;;
60239;SDS011;46102;39.012;-7.064;2023-08-07T09:11:41;6.43;;;1.65;;
60239;SDS011;46102;39.012;-7.064;2023-08-07T09:13:43;14.43;;;2.08;;
60239;SDS011;46102;39.012;-7.064;2023-08-07T09:15:47;3.78;;;1.45;;
60239;SDS011;46102;39.012;-7.064;2023-08-07T09:17:51;5.32;;;1.90;;
60239;SDS011;46102;39.012;-7.064;2023-08-07T09:19:53;12.38;;;1.65;;
60239;SDS011;46102;39.012;-7.064;2023-08-07T09:21:54;8.30;;;1.75;;
60239;SDS011;46102;39.012;-7.064;2023-08-07T09:23:55;4.25;;;1.50;;
60239;SDS011;46102;39.012;-7.064;2023-08-07T09:26:00;4.65;;;1.55;;
60239;SDS011;46102;39.012;-7.064;2023-08-07T09:28:02;4.38;;;1.58;;
60239;SDS011;46102;39.012;-7.064;2023-08-07T09:30:05;11.02;;;1.67;;
60239;SDS011;46102;39.012;-7.064;2023-08-07T09:32:09;6.55;;;1.38;;
60239;SDS011;46102;39.012;-7.064;2023-08-07T09:34:12;8.52;;;1.98;;
60239;SDS011;46102;39.012;-7.064;2023-08-07T09:36:16;5.03;;;1.50;;
60239;SDS011;46102;39.012;-7.064;2023-08-07T09:38:18;8.15;;;1.80;;
60239;SDS011;46102;39.012;-7.064;2023-08-07T09:40:19;10.90;;;1.73;;
60239;SDS011;46102;39.012;-7.064;2023-08-07T09:42:20;10.40;;;1.80;;
60239;SDS011;46102;39.012;-7.064;2023-08-07T09:44:21;7.75;;;1.58;;
60239;SDS011;46102;39.012;-7.064;2023-08-07T09:46:22;5.18;;;1.35;;
60239;SDS011;46102;39.012;-7.064;2023-08-07T09:48:23;11.38;;;1.73;;
60239;SDS011;46102;39.012;-7.064;2023-08-07T09:50:28;2.55;;;1.55;;
60239;SDS011;46102;39.012;-7.064;2023-08-07T09:52:30;6.63;;;2.13;;
60239;SDS011;46102;39.012;-7.064;2023-08-07T09:54:31;7.00;;;1.73;;
60239;SDS011;46102;39.012;-7.064;2023-08-07T09:56:32;7.35;;;2.30;;
60239;SDS011;46102;39.012;-7.064;2023-08-07T09:58:35;7.68;;;1.98;;
60239;SDS011;46102;39.012;-7.064;2023-08-07T10:00:35;7.57;;;2.30;;
60239;SDS011;46102;39.012;-7.064;2023-08-07T10:02:36;7.03;;;2.15;;
60239;SDS011;46102;39.012;-7.064;2023-08-07T10:04:38;3.30;;;1.77;;
60239;SDS011;46102;39.012;-7.064;2023-08-07T10:06:40;3.15;;;1.88;;
60239;SDS011;46102;39.012;-7.064;2023-08-07T10:08:41;9.52;;;2.22;;
60239;SDS011;46102;39.012;-7.064;2023-08-07T10:10:43;5.97;;;2.25;;
60239;SDS011;46102;39.012;-7.064;2023-08-07T10:12:46;5.55;;;2.00;;
60239;SDS011;46102;39.012;-7.064;2023-08-07T10:14:49;7.47;;;1.83;;
60239;SDS011;46102;39.012;-7.064;2023-08-07T10:16:51;5.57;;;2.00;;
60239;SDS011;46102;39.012;-7.064;2023-08-07T10:18:53;7.00;;;1.60;;
60239;SDS011;46102;39.012;-7.064;2023-08-07T10:20:55;6.55;;;2.20;;
60239;SDS011;46102;39.012;-7.064;2023-08-07T10:23:04;10.50;;;2.63;;
60239;SDS011;46102;39.012;-7.064;2023-08-07T10:25:08;16.80;;;2.65;;
60239;SDS011;46102;39.012;-7.064;2023-08-07T10:27:11;3.08;;;1.83;;
60239;SDS011;46102;39.012;-7.064;2023-08-07T10:29:14;5.20;;;2.05;;
60239;SDS011;46102;39.012;-7.064;2023-08-07T10:31:19;4.93;;;1.80;;
60239;SDS011;46102;39.012;-7.064;2023-08-07T10:33:22;4.15;;;1.70;;
60239;SDS011;46102;39.012;-7.064;2023-08-07T10:37:36;9.80;;;2.00;;
60239;SDS011;46102;39.012;-7.064;2023-08-07T10:40:00;9.98;;;2.20;;
60239;SDS011;46102;39.012;-7.064;2023-08-07T10:42:03;5.43;;;1.90;;
60239;SDS011;46102;39.012;-7.064;2023-08-07T10:44:16;3.67;;;1.73;;
60239;SDS011;46102;39.012;-7.064;2023-08-07T10:46:21;6.28;;;1.80;;
60239;SDS011;46102;39.012;-7.064;2023-08-07T10:48:22;9.40;;;2.28;;
60239;SDS011;46102;39.012;-7.064;2023-08-07T10:50:27;4.20;;;2.00;;
60239;SDS011;46102;39.012;-7.064;2023-08-07T10:52:33;9.02;;;2.00;;
60239;SDS011;46102;39.012;-7.064;2023-08-07T10:54:39;8.02;;;1.92;;
60239;SDS011;46102;39.012;-7.064;2023-08-07T10:56:44;5.93;;;2.20;;
60239;SDS011;46102;39.012;-7.064;2023-08-07T10:58:53;8.68;;;1.88;;
60239;SDS011;46102;39.012;-7.064;2023-08-07T11:03:27;10.18;;;1.98;;
60239;SDS011;46102;39.012;-7.064;2023-08-07T11:05:28;5.90;;;1.95;;
60239;SDS011;46102;39.012;-7.064;2023-08-07T11:07:31;13.00;;;2.40;;
60239;SDS011;46102;39.012;-7.064;2023-08-07T11:09:33;7.82;;;1.60;;
60239;SDS011;46102;39.012;-7.064;2023-08-07T11:13:40;3.97;;;2.00;;
60239;SDS011;46102;39.012;-7.064;2023-08-07T11:15:41;5.30;;;1.73;;
60239;SDS011;46102;39.012;-7.064;2023-08-07T11:17:42;4.00;;;2.22;;
60239;SDS011;46102;39.012;-7.064;2023-08-07T11:19:43;4.95;;;1.80;;
60239;SDS011;46102;39.012;-7.064;2023-08-07T11:21:46;7.68;;;2.15;;
60239;SDS011;46102;39.012;-7.064;2023-08-07T11:23:48;6.60;;;2.05;;
60239;SDS011;46102;39.012;-7.064;2023-08-07T11:25:49;7.55;;;1.40;;
60239;SDS011;46102;39.012;-7.064;2023-08-07T11:27:50;4.68;;;1.52;;
60239;SDS011;46102;39.012;-7.064;2023-08-07T11:29:51;9.48;;;2.25;;
60239;SDS011;46102;39.012;-7.064;2023-08-07T11:31:52;6.00;;;2.00;;
60239;SDS011;46102;39.012;-7.064;2023-08-07T11:33:57;3.00;;;1.45;;
60239;SDS011;46102;39.012;-7.064;2023-08-07T11:35:58;7.70;;;1.85;;
60239;SDS011;46102;39.012;-7.064;2023-08-07T11:38:00;9.43;;;1.63;;
60239;SDS011;46102;39.012;-7.064;2023-08-07T11:40:01;3.70;;;1.40;;
60239;SDS011;46102;39.012;-7.064;2023-08-07T11:42:03;6.57;;;1.70;;
60239;SDS011;46102;39.012;-7.064;2023-08-07T11:44:09;7.70;;;1.75;;
60239;SDS011;46102;39.012;-7.064;2023-08-07T11:46:11;9.70;;;1.35;;
60239;SDS011;46102;39.012;-7.064;2023-08-07T11:48:13;4.65;;;1.73;;
60239;SDS011;46102;39.012;-7.064;2023-08-07T11:50:14;3.58;;;1.60;;
60239;SDS011;46102;39.012;-7.064;2023-08-07T11:52:15;9.40;;;1.83;;
60239;SDS011;46102;39.012;-7.064;2023-08-07T11:54:17;2.15;;;1.70;;
60239;SDS011;46102;39.012;-7.064;2023-08-07T11:56:18;5.53;;;1.55;;
60239;SDS011;46102;39.012;-7.064;2023-08-07T11:58:20;7.38;;;1.73;;
60239;SDS011;46102;39.012;-7.064;2023-08-07T12:00:20;8.88;;;1.75;;
60239;SDS011;46102;39.012;-7.064;2023-08-07T12:02:27;4.95;;;1.50;;
60239;SDS011;46102;39.012;-7.064;2023-08-07T12:04:29;10.57;;;2.05;;
60239;SDS011;46102;39.012;-7.064;2023-08-07T12:06:36;7.78;;;1.63;;
60239;SDS011;46102;39.012;-7.064;2023-08-07T12:08:40;6.28;;;1.70;;
60239;SDS011;46102;39.012;-7.064;2023-08-07T12:10:41;7.50;;;1.50;;
60239;SDS011;46102;39.012;-7.064;2023-08-07T12:12:42;2.63;;;1.50;;